Time;durP1;ratioP1;P1;durP2;ratioP2;P2;SDS_P1;SDS_P2;PMS_P1;PMS_P2;Temp;Humidity;BMP_temperature;BMP_pressure;BME280_temperature;BME280_humidity;BME280_pressure;Samples;Min_cycle;Max_cycle;Signal;HPM_P1;HPM_P2
2021/12/22 00:01:12;;;;;;;10.70;8.20;;;;;;;-8.95;80.95;99975.38;1695067;83;21038;-75
2021/12/22 00:03:40;;;;;;;16.20;8.90;;;;;;;-9.00;80.96;99974.44;1715943;83;20970;-74
2021/12/22 00:06:08;;;;;;;11.63;6.83;;;;;;;-9.00;81.15;99977.52;1699921;83;20973;-71
2021/12/22 00:08:36;;;;;;;19.10;8.00;;;;;;;-8.95;81.26;99976.21;1714382;83;22299;-71
2021/12/22 00:11:02;;;;;;;11.37;7.27;;;;;;;-8.93;81.12;99978.23;1693477;83;21482;-71
2021/12/22 00:13:30;;;;;;;11.67;7.47;;;;;;;-8.92;81.16;99980.38;1715969;83;21502;-72
2021/12/22 00:15:56;;;;;;;9.73;7.00;;;;;;;-8.92;81.15;99980.38;1715710;83;21146;-73
2021/12/22 00:18:23;;;;;;;13.30;7.00;;;;;;;-8.88;81.16;99975.27;1684235;84;21573;-72
2021/12/22 00:20:49;;;;;;;9.90;6.57;;;;;;;-8.88;81.08;99976.58;1688440;83;21509;-71
2021/12/22 00:23:17;;;;;;;8.90;6.27;;;;;;;-8.88;81.07;99975.27;1685766;84;21575;-71
2021/12/22 00:25:43;;;;;;;9.63;6.60;;;;;;;-8.90;81.05;99976.69;1657941;86;21012;-73
2021/12/22 00:28:10;;;;;;;12.53;7.30;;;;;;;-8.91;81.07;99976.80;1685663;84;21199;-72
2021/12/22 00:30:38;;;;;;;11.47;6.70;;;;;;;-8.90;81.08;99973.25;1699759;82;21056;-71
2021/12/22 00:33:06;;;;;;;13.77;8.10;;;;;;;-8.88;81.14;99976.11;1702562;82;21031;-80
2021/12/22 00:35:45;;;;;;;15.57;6.87;;;;;;;-8.86;81.14;99971.58;1699712;84;21055;-73
2021/12/22 00:38:15;;;;;;;8.77;6.20;;;;;;;-8.83;81.16;99978.35;1716056;83;21441;-77
2021/12/22 00:40:43;;;;;;;9.20;6.40;;;;;;;-8.81;81.19;99986.86;1732691;82;20976;-77
2021/12/22 00:43:10;;;;;;;14.37;7.93;;;;;;;-8.85;81.16;99991.96;1738770;82;21592;-78
2021/12/22 00:45:37;;;;;;;11.03;6.30;;;;;;;-8.87;81.33;99994.67;1731541;82;21533;-73
2021/12/22 00:48:05;;;;;;;12.67;8.27;;;;;;;-8.86;81.45;99988.99;1751823;81;21025;-76
2021/12/22 00:50:32;;;;;;;11.47;6.20;;;;;;;-8.86;81.44;99992.43;1724737;82;21031;-75
2021/12/22 00:52:59;;;;;;;12.93;8.20;;;;;;;-8.86;81.48;99991.60;1696065;83;21115;-73
2021/12/22 00:55:25;;;;;;;11.00;8.53;;;;;;;-8.89;81.52;99993.16;1678864;85;21598;-73
2021/12/22 00:57:52;;;;;;;8.20;6.40;;;;;;;-8.88;81.57;99994.34;1686489;83;21038;-75
2021/12/22 01:00:21;;;;;;;12.57;7.30;;;;;;;-8.91;81.65;100002.38;1694396;83;21644;-75
2021/12/22 01:02:47;;;;;;;9.20;6.17;;;;;;;-8.92;81.67;99990.30;1702336;83;21005;-76
2021/12/22 01:05:15;;;;;;;12.53;6.73;;;;;;;-8.92;81.81;99990.30;1725747;83;21585;-78
2021/12/22 01:07:44;;;;;;;8.27;6.00;;;;;;;-8.93;81.82;99992.56;1725655;83;20984;-79
2021/12/22 01:10:11;;;;;;;8.93;6.40;;;;;;;-8.92;81.94;99998.11;1725681;82;21041;-69
2021/12/22 01:12:39;;;;;;;12.87;6.70;;;;;;;-8.89;82.04;99994.45;1725255;83;21033;-73
2021/12/22 01:15:07;;;;;;;11.30;7.50;;;;;;;-8.87;82.12;100001.66;1725508;83;21115;-72
2021/12/22 01:17:40;;;;;;;11.50;6.80;;;;;;;-8.82;82.23;99991.71;1693644;84;21137;-72
2021/12/22 01:20:08;;;;;;;8.33;5.40;;;;;;;-8.79;82.27;99993.27;1725972;83;20985;-73
2021/12/22 01:22:46;;;;;;;7.40;5.67;;;;;;;-8.79;82.33;99995.88;1702817;83;21033;-72
2021/12/22 01:25:03;;;;;;;10.50;6.13;;;;;;;-8.79;82.42;99996.70;1708543;83;21027;-73
2021/12/22 01:27:36;;;;;;;6.43;5.00;;;;;;;-8.78;82.44;99988.41;1716781;83;21011;-72
2021/12/22 01:30:08;;;;;;;7.85;5.37;;;;;;;-8.75;82.48;100000.72;1724594;81;21245;-74
2021/12/22 01:32:35;;;;;;;6.58;4.55;;;;;;;-8.74;82.45;100008.08;1686284;84;21594;-73
2021/12/22 01:35:01;;;;;;;8.93;6.03;;;;;;;-8.72;82.44;100004.85;1702950;84;21071;-73
2021/12/22 01:37:27;;;;;;;6.77;4.67;;;;;;;-8.74;82.42;100003.69;1678635;84;21121;-74
2021/12/22 01:39:53;;;;;;;6.17;4.80;;;;;;;-8.74;82.48;100018.03;1691896;82;21003;-71
2021/12/22 01:42:20;;;;;;;6.87;4.20;;;;;;;-8.74;82.54;100017.20;1725564;82;21166;-73
2021/12/22 01:45:14;;;;;;;8.53;4.73;;;;;;;-8.75;82.47;100020.27;1725435;83;21019;-74
2021/12/22 01:50:32;;;;;;;6.03;4.00;;;;;;;-8.73;82.46;100027.98;1723576;81;21620;-75
2021/12/22 01:53:22;;;;;;;5.58;4.90;;;;;;;-8.73;82.49;100025.38;1683793;84;21030;-70
2021/12/22 01:56:20;;;;;;;6.63;3.87;;;;;;;-8.74;82.44;100033.66;1674807;85;21111;-68
2021/12/22 01:58:44;;;;;;;7.80;4.47;;;;;;;-8.75;82.36;100033.77;1689723;84;20971;-70
2021/12/22 02:01:10;;;;;;;3.60;3.30;;;;;;;-8.76;82.36;100034.25;1739786;81;20899;-71
2021/12/22 02:03:40;;;;;;;5.93;4.63;;;;;;;-8.77;82.34;100038.27;1726037;83;20972;-72
2021/12/22 02:06:06;;;;;;;6.73;5.13;;;;;;;-8.78;82.35;100036.63;1700838;83;21008;-72
2021/12/22 02:08:33;;;;;;;10.30;4.80;;;;;;;-8.81;82.35;100032.47;1700350;83;21137;-72
2021/12/22 02:11:00;;;;;;;8.63;5.13;;;;;;;-8.82;82.37;100036.02;1704792;83;21025;-73
2021/12/22 02:13:31;;;;;;;5.93;4.03;;;;;;;-8.82;82.39;100039.92;1722933;83;21094;-69
2021/12/22 02:15:55;;;;;;;8.13;4.53;;;;;;;-8.85;82.33;100036.27;1720944;82;23395;-71
2021/12/22 02:18:22;;;;;;;6.37;4.80;;;;;;;-8.87;82.37;100031.62;1682527;84;21083;-67
2021/12/22 02:20:49;;;;;;;7.10;4.90;;;;;;;-8.87;82.36;100036.37;1701879;84;21964;-70
2021/12/22 02:23:18;;;;;;;10.90;6.33;;;;;;;-8.89;82.34;100034.84;1704344;84;21079;-72
2021/12/22 02:25:52;;;;;;;8.07;6.10;;;;;;;-8.90;82.38;100041.83;1704732;84;21015;-73
2021/12/22 02:28:21;;;;;;;9.03;7.17;;;;;;;-8.90;82.34;100031.41;1706583;82;21543;-70
2021/12/22 02:30:47;;;;;;;10.80;6.63;;;;;;;-8.90;82.33;100031.88;1704971;82;21012;-71
2021/12/22 02:33:25;;;;;;;7.10;5.47;;;;;;;-8.94;82.33;100033.89;1637800;85;21202;-68
2021/12/22 02:38:39;;;;;;;9.83;5.10;;;;;;;-8.90;82.42;100037.09;1705466;84;21578;-74
2021/12/22 02:41:08;;;;;;;10.17;5.93;;;;;;;-8.89;82.36;100040.05;1705323;82;21046;-72
2021/12/22 02:43:42;;;;;;;8.33;5.40;;;;;;;-8.88;82.28;100036.51;1704707;84;21339;-76
2021/12/22 02:46:04;;;;;;;7.70;5.13;;;;;;;-8.84;82.34;100044.44;1708607;82;21592;-77
2021/12/22 02:48:32;;;;;;;7.57;5.43;;;;;;;-8.83;81.94;100043.50;1698150;82;21603;-76
2021/12/22 02:51:01;;;;;;;7.87;5.53;;;;;;;-8.84;81.81;100045.74;1679354;84;21180;-75
2021/12/22 02:53:40;;;;;;;7.07;4.33;;;;;;;-8.86;81.72;100045.02;1659407;84;21023;-76
2021/12/22 02:56:12;;;;;;;8.55;4.87;;;;;;;-8.81;81.76;100049.41;1681319;84;21036;-76
2021/12/22 02:58:39;;;;;;;9.00;5.77;;;;;;;-8.78;81.52;100047.05;1708205;82;21803;-76
2021/12/22 03:03:57;;;;;;;8.63;4.57;;;;;;;-8.82;81.34;100058.67;1640336;85;21103;-82
2021/12/22 03:06:28;;;;;;;7.57;5.57;;;;;;;-8.82;81.25;100062.08;1685309;84;22209;-82
2021/12/22 03:08:48;;;;;;;11.77;5.50;;;;;;;-8.79;81.20;100057.95;1683484;84;21052;-77
2021/12/22 03:11:14;;;;;;;7.90;6.07;;;;;;;-8.79;81.16;100057.11;1708053;84;22432;-80
2021/12/22 03:13:40;;;;;;;7.47;5.30;;;;;;;-8.81;81.06;100058.53;1678870;83;21193;-82
2021/12/22 03:16:07;;;;;;;7.67;5.40;;;;;;;-8.82;80.99;100059.97;1652861;85;21137;-78
2021/12/22 03:18:34;;;;;;;10.83;4.80;;;;;;;-8.85;80.97;100057.94;1686615;84;20979;-78
2021/12/22 03:21:17;;;;;;;8.83;6.87;;;;;;;-8.85;80.98;100068.36;1681275;84;21563;-81
2021/12/22 03:23:32;;;;;;;8.30;5.90;;;;;;;-8.87;80.96;100070.25;1720691;83;21054;-78
2021/12/22 03:25:59;;;;;;;11.87;6.13;;;;;;;-8.94;81.04;100068.23;1726425;82;21053;-79
2021/12/22 03:28:25;;;;;;;8.90;5.67;;;;;;;-8.96;81.21;100071.42;1675154;84;21036;-79
2021/12/22 03:30:53;;;;;;;8.10;6.43;;;;;;;-8.97;81.37;100075.00;1730016;83;21086;-77
2021/12/22 03:33:19;;;;;;;9.63;6.80;;;;;;;-8.96;81.51;100072.72;1675124;84;21072;-79
2021/12/22 03:35:46;;;;;;;9.37;6.03;;;;;;;-8.94;81.57;100074.75;1716825;83;21347;-80
2021/12/22 03:38:12;;;;;;;13.10;6.53;;;;;;;-8.91;81.60;100073.20;1664683;84;21591;-81
2021/12/22 03:40:38;;;;;;;7.53;5.70;;;;;;;-8.92;81.56;100076.78;1674273;83;21568;-82
2021/12/22 03:43:05;;;;;;;10.87;5.27;;;;;;;-8.95;81.55;100085.64;1724790;82;21311;-82
2021/12/22 03:45:31;;;;;;;9.87;5.57;;;;;;;-8.98;81.58;100085.89;1709768;83;21116;-81
2021/12/22 03:47:58;;;;;;;7.03;4.80;;;;;;;-9.02;81.63;100094.05;1709854;84;21131;-79
2021/12/22 03:50:24;;;;;;;9.63;5.33;;;;;;;-9.05;81.69;100095.09;1728759;83;21550;-80
2021/12/22 03:52:50;;;;;;;7.03;4.90;;;;;;;-9.05;81.73;100097.70;1730103;83;20942;-79
2021/12/22 03:55:18;;;;;;;8.17;5.73;;;;;;;-9.06;81.76;100092.63;1712894;83;21014;-81
2021/12/22 03:57:46;;;;;;;7.47;5.17;;;;;;;-9.07;81.71;100093.09;1720908;83;21568;-81
2021/12/22 04:00:14;;;;;;;6.80;5.97;;;;;;;-9.09;81.67;100092.38;1725001;83;21098;-79
2021/12/22 04:02:40;;;;;;;9.00;5.70;;;;;;;-9.13;81.65;100100.53;1675966;84;21001;-78
2021/12/22 04:05:09;;;;;;;11.33;5.83;;;;;;;-9.17;81.61;100103.84;1677213;84;21021;-77
2021/12/22 04:07:36;;;;;;;11.07;5.87;;;;;;;-9.23;81.62;100104.77;1706640;83;21093;-78
2021/12/22 04:10:19;;;;;;;9.07;5.20;;;;;;;-9.30;81.62;100104.38;1714515;83;21041;-78
2021/12/22 04:12:33;;;;;;;7.47;5.17;;;;;;;-9.34;81.72;100102.95;1725226;83;21266;-78
2021/12/22 04:15:00;;;;;;;9.57;6.90;;;;;;;-9.36;81.68;100105.69;1729758;82;20958;-79
2021/12/22 04:17:26;;;;;;;7.63;5.70;;;;;;;-9.35;81.66;100102.61;1730339;81;20970;-76
2021/12/22 04:19:52;;;;;;;9.10;5.10;;;;;;;-9.34;81.61;100106.38;1704844;83;21097;-78
2021/12/22 04:22:18;;;;;;;9.43;5.77;;;;;;;-9.35;81.53;100106.52;1730255;83;21081;-78
2021/12/22 04:24:45;;;;;;;7.53;4.73;;;;;;;-9.34;81.40;100107.69;1729720;83;21124;-78
2021/12/22 04:27:12;;;;;;;6.97;4.83;;;;;;;-9.34;81.23;100113.36;1728457;83;20991;-75
2021/12/22 04:29:38;;;;;;;8.70;5.33;;;;;;;-9.33;81.20;100112.42;1728981;83;20998;-77
2021/12/22 04:32:06;;;;;;;8.17;4.90;;;;;;;-9.33;81.10;100116.33;1730106;83;21018;-75
2021/12/22 04:34:36;;;;;;;7.20;5.83;;;;;;;-9.26;81.19;100114.95;1705610;83;20927;-78
2021/12/22 04:37:03;;;;;;;13.00;6.90;;;;;;;-9.18;81.10;100120.88;1705270;83;21788;-75
2021/12/22 04:39:32;;;;;;;8.03;4.83;;;;;;;-9.12;80.94;100123.03;1682081;83;21527;-77
2021/12/22 04:41:57;;;;;;;8.73;5.77;;;;;;;-9.09;80.65;100119.72;1729644;83;21081;-77
2021/12/22 04:44:24;;;;;;;10.07;6.70;;;;;;;-9.12;80.44;100129.55;1730318;83;21037;-78
2021/12/22 04:46:50;;;;;;;9.53;6.63;;;;;;;-9.14;80.43;100131.42;1720926;82;21046;-77
2021/12/22 04:49:17;;;;;;;7.50;6.47;;;;;;;-9.15;80.31;100134.50;1697894;83;21680;-77
2021/12/22 04:51:50;;;;;;;12.20;6.87;;;;;;;-9.16;80.26;100130.72;1727816;83;21020;-77
2021/12/22 04:54:30;;;;;;;9.40;6.70;;;;;;;-9.16;80.17;100141.14;1704156;83;21042;-77
2021/12/22 04:56:42;;;;;;;11.83;6.27;;;;;;;-9.22;79.94;100144.19;1727250;83;21447;-76
2021/12/22 04:59:10;;;;;;;9.67;6.73;;;;;;;-9.31;79.78;100150.91;1705424;83;20995;-74
2021/12/22 05:01:36;;;;;;;8.83;5.60;;;;;;;-9.37;79.78;100148.75;1730090;83;21369;-73
2021/12/22 05:04:03;;;;;;;9.97;6.17;;;;;;;-9.43;79.81;100147.89;1705121;83;20894;-75
2021/12/22 05:06:31;;;;;;;7.87;6.53;;;;;;;-9.48;79.86;100154.73;1705113;83;21010;-75
2021/12/22 05:08:58;;;;;;;10.10;6.87;;;;;;;-9.46;79.92;100157.23;1730166;83;21022;-76
2021/12/22 05:11:25;;;;;;;6.87;5.73;;;;;;;-9.49;79.91;100151.77;1687085;84;21075;-77
2021/12/22 05:13:51;;;;;;;9.80;5.60;;;;;;;-9.47;79.99;100160.30;1699651;84;21145;-78
2021/12/22 05:16:19;;;;;;;8.90;6.00;;;;;;;-9.49;79.93;100164.78;1699445;84;20934;-78
2021/12/22 05:21:16;;;;;;;8.50;5.10;;;;;;;-9.49;80.05;100163.95;1719948;83;21073;-78
2021/12/22 05:23:43;;;;;;;10.27;4.87;;;;;;;-9.50;80.08;100165.75;1730100;82;21444;-78
2021/12/22 05:26:09;;;;;;;7.97;5.67;;;;;;;-9.51;80.11;100165.84;1729345;83;21119;-78
2021/12/22 05:28:36;;;;;;;9.50;5.27;;;;;;;-9.50;80.19;100167.05;1728681;81;20994;-77
2021/12/22 05:31:02;;;;;;;10.00;5.00;;;;;;;-9.49;80.13;100171.28;1729536;83;20923;-78
2021/12/22 05:33:30;;;;;;;7.87;5.40;;;;;;;-9.44;80.21;100179.59;1729966;83;21867;-76
2021/12/22 05:35:56;;;;;;;6.50;5.67;;;;;;;-9.41;80.12;100170.75;1730155;82;21487;-77
2021/12/22 05:38:23;;;;;;;6.77;4.70;;;;;;;-9.39;80.21;100173.59;1728451;82;22128;-78
2021/12/22 05:40:50;;;;;;;9.27;5.97;;;;;;;-9.37;80.21;100171.72;1702319;83;21033;-76
2021/12/22 05:43:16;;;;;;;6.97;5.23;;;;;;;-9.37;80.29;100179.53;1730369;83;21615;-79
2021/12/22 05:45:42;;;;;;;7.60;4.63;;;;;;;-9.37;80.44;100176.92;1730816;83;21522;-76
2021/12/22 05:48:09;;;;;;;6.63;5.30;;;;;;;-9.36;80.51;100184.27;1713231;81;20999;-79
2021/12/22 05:50:36;;;;;;;7.53;4.57;;;;;;;-9.36;80.52;100184.27;1693200;84;21369;-77
2021/12/22 05:53:03;;;;;;;5.73;4.37;;;;;;;-9.37;80.62;100188.64;1716428;83;21645;-80
2021/12/22 05:55:30;;;;;;;7.03;5.73;;;;;;;-9.35;80.64;100193.75;1685852;84;21010;-82
2021/12/22 05:57:56;;;;;;;5.27;4.30;;;;;;;-9.32;80.73;100193.52;1716091;83;21555;-81
2021/12/22 06:00:24;;;;;;;6.53;4.43;;;;;;;-9.29;80.64;100201.09;1716543;82;21036;-78
2021/12/22 06:02:51;;;;;;;5.90;4.20;;;;;;;-9.34;80.28;100219.66;1685190;85;21076;-79
2021/12/22 06:05:19;;;;;;;7.40;5.50;;;;;;;-9.38;80.23;100212.17;1716291;83;20957;-83
2021/12/22 06:07:46;;;;;;;7.30;5.07;;;;;;;-9.42;80.19;100217.25;1716251;83;21013;-80
2021/12/22 06:10:13;;;;;;;6.37;4.47;;;;;;;-9.47;80.17;100216.28;1695452;83;21073;-80
2021/12/22 06:12:41;;;;;;;9.97;5.30;;;;;;;-9.48;80.21;100221.58;1685966;84;21478;-80
2021/12/22 06:15:08;;;;;;;7.03;4.70;;;;;;;-9.52;80.13;100217.55;1709373;84;21599;-80
2021/12/22 06:17:35;;;;;;;7.83;3.97;;;;;;;-9.59;80.16;100231.45;1697329;84;21661;-79
2021/12/22 06:20:03;;;;;;;5.53;4.93;;;;;;;-9.59;80.26;100231.95;1666565;84;21098;-81
2021/12/22 06:22:32;;;;;;;4.83;4.30;;;;;;;-9.60;80.32;100228.52;1685354;84;21028;-81
2021/12/22 06:24:58;;;;;;;4.27;3.33;;;;;;;-9.58;80.30;100229.68;1666323;84;21016;-81
2021/12/22 06:27:24;;;;;;;8.37;5.83;;;;;;;-9.59;80.30;100235.85;1716071;83;21012;-82
2021/12/22 06:29:51;;;;;;;5.27;3.70;;;;;;;-9.59;80.18;100242.36;1716094;83;20985;-83
2021/12/22 06:32:17;;;;;;;6.20;4.93;;;;;;;-9.60;80.21;100261.52;1718835;83;20898;-75
2021/12/22 06:34:43;;;;;;;6.43;4.70;;;;;;;-9.60;80.11;100251.11;1716239;83;20994;-78
2021/12/22 06:37:13;;;;;;;5.80;4.50;;;;;;;-9.63;79.88;100259.11;1713346;83;20954;-78
2021/12/22 06:39:39;;;;;;;6.23;3.73;;;;;;;-9.65;79.87;100265.74;1695803;83;21155;-77
2021/12/22 06:42:08;;;;;;;5.87;4.70;;;;;;;-9.71;79.48;100264.86;1716837;83;20926;-78
2021/12/22 06:44:35;;;;;;;5.47;4.20;;;;;;;-9.71;79.57;100285.22;1697121;83;20964;-77
2021/12/22 06:47:02;;;;;;;8.83;5.37;;;;;;;-9.69;79.67;100276.47;1699949;83;20933;-76
2021/12/22 06:49:30;;;;;;;6.20;5.13;;;;;;;-9.67;79.65;100283.22;1726492;83;20953;-78
2021/12/22 06:51:56;;;;;;;6.57;5.97;;;;;;;-9.65;79.49;100276.62;1755410;81;21018;-79
2021/12/22 06:54:24;;;;;;;5.47;4.33;;;;;;;-9.65;79.29;100283.96;1701559;84;20972;-79
2021/12/22 06:56:50;;;;;;;4.33;3.83;;;;;;;-9.62;79.14;100285.50;1726834;83;21447;-81
2021/12/22 06:59:18;;;;;;;7.50;5.50;;;;;;;-9.63;78.81;100294.24;1725669;83;21008;-78
2021/12/22 07:01:45;;;;;;;4.63;3.67;;;;;;;-9.65;78.61;100285.73;1725810;81;21002;-80
2021/12/22 07:04:12;;;;;;;4.93;4.43;;;;;;;-9.82;78.38;100297.30;1702950;83;21402;-83
2021/12/22 07:06:38;;;;;;;4.20;3.83;;;;;;;-9.88;78.15;100286.83;1725609;83;20985;-76
2021/12/22 07:09:06;;;;;;;4.47;4.07;;;;;;;-9.90;78.34;100283.98;1702710;83;21000;-80
2021/12/22 07:11:36;;;;;;;4.27;3.77;;;;;;;-9.88;78.51;100279.03;1724193;81;20969;-83
2021/12/22 07:14:06;;;;;;;6.20;3.90;;;;;;;-9.86;78.54;100277.63;1696767;84;21017;-81
2021/12/22 07:16:33;;;;;;;4.10;3.70;;;;;;;-9.92;79.00;100296.26;1630428;86;22069;-82
2021/12/22 07:18:59;;;;;;;5.07;4.03;;;;;;;-9.93;79.30;100294.62;1685609;84;21021;-81
2021/12/22 07:21:27;;;;;;;5.53;4.03;;;;;;;-9.95;79.49;100297.78;1726614;83;21646;-80
2021/12/22 07:23:53;;;;;;;4.40;4.00;;;;;;;-9.94;80.01;100300.28;1677520;84;21544;-80
2021/12/22 07:26:21;;;;;;;3.70;3.40;;;;;;;-9.94;79.76;100314.59;1725684;83;20997;-81
2021/12/22 07:28:48;;;;;;;4.00;3.53;;;;;;;-9.92;79.97;100292.36;1674542;84;21324;-82
2021/12/22 07:31:16;;;;;;;3.77;3.47;;;;;;;-9.90;79.83;100300.90;1721722;83;20977;-79
2021/12/22 07:34:03;;;;;;;7.60;5.03;;;;;;;-9.87;79.70;100300.21;1705621;82;21099;-80
2021/12/22 07:36:30;;;;;;;5.50;4.33;;;;;;;-9.78;79.75;100306.55;1664334;83;21079;-78
2021/12/22 07:39:01;;;;;;;8.20;6.47;;;;;;;-9.69;79.43;100294.23;1702632;82;20965;-79
2021/12/22 07:41:28;;;;;;;9.50;5.45;;;;;;;-9.63;79.19;100309.86;1694880;84;21544;-81
2021/12/22 07:43:54;;;;;;;5.57;4.37;;;;;;;-9.65;78.09;100300.88;1693656;84;20951;-81
2021/12/22 07:46:21;;;;;;;8.83;6.20;;;;;;;-9.65;77.98;100307.38;1700998;83;20930;-76
2021/12/22 07:48:47;;;;;;;6.07;4.73;;;;;;;-9.64;77.92;100306.45;1678436;84;20993;-82
2021/12/22 07:51:15;;;;;;;6.13;4.30;;;;;;;-9.57;77.78;100311.58;1684898;85;20993;-79
2021/12/22 07:53:41;;;;;;;4.07;3.67;;;;;;;-9.52;77.75;100299.08;1716023;83;21208;-80
2021/12/22 07:56:08;;;;;;;5.23;3.77;;;;;;;-9.46;77.44;100307.77;1717468;82;21167;-79
2021/12/22 07:58:34;;;;;;;5.40;3.20;;;;;;;-9.43;77.09;100309.30;1665538;85;21060;-81
2021/12/22 08:01:00;;;;;;;3.63;3.33;;;;;;;-9.41;76.85;100308.27;1650266;85;21523;-81
2021/12/22 08:03:27;;;;;;;4.77;3.63;;;;;;;-9.38;76.55;100311.12;1695152;84;21024;-80
2021/12/22 08:05:53;;;;;;;4.57;3.13;;;;;;;-9.39;76.16;100301.17;1694179;83;21101;-79
2021/12/22 08:08:21;;;;;;;4.23;3.03;;;;;;;-9.34;76.33;100319.91;1733240;82;20957;-81
2021/12/22 08:10:47;;;;;;;4.13;2.83;;;;;;;-9.31;75.89;100305.85;1665347;85;21522;-79
2021/12/22 08:13:15;;;;;;;3.70;3.20;;;;;;;-9.30;75.43;100308.80;1714427;83;21519;-78
2021/12/22 08:15:43;;;;;;;4.37;3.70;;;;;;;-9.28;76.01;100291.30;1684435;85;21013;-80
2021/12/22 08:18:10;;;;;;;4.70;4.20;;;;;;;-9.23;76.33;100301.39;1715491;83;21198;-78
2021/12/22 08:20:37;;;;;;;3.40;3.10;;;;;;;-9.21;76.01;100302.13;1646310;85;21090;-77
2021/12/22 08:23:03;;;;;;;4.17;3.77;;;;;;;-9.18;76.11;100290.17;1659860;85;21077;-81
2021/12/22 08:25:30;;;;;;;4.93;3.40;;;;;;;-9.14;76.21;100288.54;1684075;83;21022;-79
2021/12/22 08:27:56;;;;;;;7.83;4.47;;;;;;;-9.10;76.19;100297.80;1666021;86;21567;-78
2021/12/22 08:30:23;;;;;;;4.40;3.00;;;;;;;-9.08;75.91;100297.22;1644745;86;21063;-79
2021/12/22 08:32:49;;;;;;;5.37;3.43;;;;;;;-9.06;75.79;100305.74;1671617;84;21116;-77
2021/12/22 08:35:17;;;;;;;4.13;3.73;;;;;;;-9.03;75.49;100299.03;1705224;83;21042;-82
2021/12/22 08:40:28;;;;;;;5.00;4.50;;;;;;;-8.97;75.11;100302.47;1693030;84;21020;-83
2021/12/22 08:42:55;;;;;;;12.00;4.87;;;;;;;-8.97;74.58;100301.17;1717373;83;21995;-78
2021/12/22 08:45:22;;;;;;;5.17;4.60;;;;;;;-8.97;74.35;100314.20;1696864;83;20953;-77
2021/12/22 08:47:49;;;;;;;2.83;2.63;;;;;;;-8.96;74.26;100302.84;1695968;83;21044;-76
2021/12/22 08:50:16;;;;;;;3.83;3.50;;;;;;;-8.96;73.43;100315.86;1695019;84;21498;-75
2021/12/22 08:52:43;;;;;;;10.23;5.30;;;;;;;-8.98;73.37;100296.92;1721585;81;21087;-76
2021/12/22 08:55:09;;;;;;;5.93;3.60;;;;;;;-8.97;73.57;100300.36;1720733;83;21731;-76
2021/12/22 08:57:36;;;;;;;5.17;3.63;;;;;;;-8.96;73.72;100298.93;1672879;84;21036;-74
2021/12/22 09:00:09;;;;;;;3.73;2.83;;;;;;;-8.95;73.70;100295.86;1658327;84;21031;-76
2021/12/22 09:02:38;;;;;;;3.02;2.70;;;;;;;-8.98;73.09;100310.42;1728265;82;20987;-73
2021/12/22 09:05:07;;;;;;;9.60;6.13;;;;;;;-9.06;70.87;100313.56;1728479;81;21001;-77
2021/12/22 09:07:33;;;;;;;4.03;2.77;;;;;;;-9.09;71.24;100300.77;1716195;83;22380;-77
2021/12/22 09:10:04;;;;;;;3.47;3.17;;;;;;;-9.06;72.66;100337.51;1703756;84;21553;-77
2021/12/22 09:12:31;;;;;;;3.00;2.80;;;;;;;-9.08;71.58;100314.63;1705413;83;21567;-77
2021/12/22 09:14:57;;;;;;;3.47;2.60;;;;;;;-9.08;70.80;100297.69;1705537;84;21094;-78
2021/12/22 09:17:23;;;;;;;4.53;2.63;;;;;;;-9.06;70.49;100307.05;1711506;83;21018;-79
2021/12/22 09:19:52;;;;;;;4.30;3.17;;;;;;;-9.05;70.36;100306.11;1725497;82;21526;-77
2021/12/22 09:22:18;;;;;;;5.47;2.97;;;;;;;-9.00;70.55;100319.64;1722003;83;21021;-81
2021/12/22 09:24:44;;;;;;;3.33;3.03;;;;;;;-8.98;70.71;100303.91;1722025;83;21516;-78
2021/12/22 09:27:11;;;;;;;4.07;3.67;;;;;;;-8.94;71.06;100302.73;1722747;83;21033;-79
2021/12/22 09:29:42;;;;;;;3.17;2.97;;;;;;;-8.89;71.50;100307.98;1724794;83;21571;-81
2021/12/22 09:32:14;;;;;;;3.37;3.07;;;;;;;-8.86;71.39;100299.93;1702275;83;21064;-79
2021/12/22 09:34:43;;;;;;;2.70;2.23;;;;;;;-8.86;71.42;100302.54;1705397;82;21556;-79
2021/12/22 09:37:09;;;;;;;5.37;3.03;;;;;;;-8.87;70.93;100286.53;1704968;83;21048;-76
2021/12/22 09:39:36;;;;;;;3.97;3.57;;;;;;;-8.93;69.98;100311.76;1702754;82;21063;-80
2021/12/22 09:42:02;;;;;;;5.10;3.00;;;;;;;-8.94;70.00;100300.13;1683286;84;21501;-79
2021/12/22 09:44:33;;;;;;;4.00;2.73;;;;;;;-8.93;70.36;100296.12;1706101;82;21648;-79
2021/12/22 09:46:59;;;;;;;3.67;3.37;;;;;;;-8.88;70.73;100296.62;1705076;82;21045;-79
2021/12/22 09:52:27;;;;;;;5.23;3.20;;;;;;;-8.75;69.72;100308.28;1653557;85;21547;-77
2021/12/22 09:54:55;;;;;;;3.50;2.47;;;;;;;-8.76;68.37;100292.27;1729645;81;21022;-78
2021/12/22 09:57:22;;;;;;;3.97;3.03;;;;;;;-8.79;67.77;100311.22;1709576;83;21287;-78
2021/12/22 09:59:51;;;;;;;5.43;3.47;;;;;;;-8.80;67.99;100301.27;1681300;83;21042;-81
2021/12/22 10:02:19;;;;;;;3.20;2.70;;;;;;;-8.78;68.17;100284.22;1678084;83;20994;-79
2021/12/22 10:04:47;;;;;;;3.00;2.70;;;;;;;-8.75;68.45;100290.03;1685482;83;21534;-80
2021/12/22 10:07:20;;;;;;;5.23;4.07;;;;;;;-8.70;68.68;100294.91;1681559;83;21133;-81
2021/12/22 10:09:45;;;;;;;6.30;2.57;;;;;;;-8.66;68.98;100284.14;1712671;82;21034;-80
2021/12/22 10:12:24;;;;;;;4.03;3.27;;;;;;;-8.60;69.22;100272.43;1711638;81;21029;-80
2021/12/22 10:14:58;;;;;;;4.07;3.57;;;;;;;-8.56;69.11;100261.66;1708462;84;21566;-82
2021/12/22 10:17:43;;;;;;;4.67;2.67;;;;;;;-8.49;69.23;100275.08;1755038;81;21025;-82
2021/12/22 10:20:16;;;;;;;4.93;4.43;;;;;;;-8.41;69.55;100267.50;1698943;84;21584;-85
2021/12/22 10:22:47;;;;;;;4.60;4.08;;;;;;;-8.26;69.79;100270.70;1730313;83;21837;-79
2021/12/22 10:25:18;;;;;;;7.93;5.77;;;;;;;-8.11;69.85;100272.99;1698837;84;21576;-84
2021/12/22 10:27:53;;;;;;;6.63;3.90;;;;;;;-7.99;69.57;100268.59;1728459;83;20924;-85
2021/12/22 10:30:41;;;;;;;7.97;4.50;;;;;;;-7.91;68.67;100275.85;1694234;84;21561;-85
2021/12/22 10:33:21;;;;;;;3.37;3.07;;;;;;;-7.83;67.47;100286.52;1708323;83;21054;-80
2021/12/22 10:35:50;;;;;;;6.50;3.70;;;;;;;-7.78;66.40;100275.25;1699169;84;21162;-80
2021/12/22 10:38:19;;;;;;;4.33;3.10;;;;;;;-7.77;66.20;100281.67;1730684;81;20950;-76
2021/12/22 10:40:55;;;;;;;4.77;3.53;;;;;;;-7.80;65.73;100282.36;1689176;82;21021;-75
2021/12/22 10:43:28;;;;;;;6.10;4.33;;;;;;;-7.82;65.85;100292.11;1741455;81;20977;-75
2021/12/22 10:46:00;;;;;;;7.20;4.20;;;;;;;-7.86;65.49;100281.55;1664984;82;21093;-77
2021/12/22 10:51:36;;;;;;;6.25;3.35;;;;;;;-7.93;65.25;100315.11;1689535;84;21023;-78
2021/12/22 10:54:11;;;;;;;3.90;3.37;;;;;;;-8.00;65.10;100306.07;1679180;82;21022;-81
2021/12/22 10:56:41;;;;;;;5.13;3.27;;;;;;;-8.11;65.49;100308.69;1684966;84;21085;-88
2021/12/22 10:59:13;;;;;;;5.97;3.77;;;;;;;-8.18;65.75;100307.00;1692713;84;20933;-76
2021/12/22 11:02:06;;;;;;;5.25;3.05;;;;;;;-8.19;66.33;100306.64;1719901;83;21075;-72
2021/12/22 11:04:30;;;;;;;4.00;3.60;;;;;;;-8.20;66.53;100304.97;1702180;84;21557;-75
2021/12/22 11:07:22;;;;;;;4.30;3.25;;;;;;;-8.24;66.60;100302.70;1700589;84;21023;-84
2021/12/22 11:09:44;;;;;;;3.30;3.00;;;;;;;-8.31;66.10;100301.08;1686964;84;21031;-72
2021/12/22 11:12:13;;;;;;;4.87;3.77;;;;;;;-8.35;66.63;100295.74;1702539;83;21025;-70
2021/12/22 11:14:40;;;;;;;3.60;3.27;;;;;;;-8.34;66.87;100305.20;1721338;83;22205;-69
2021/12/22 11:17:12;;;;;;;3.70;3.40;;;;;;;-8.30;67.28;100312.35;1722923;83;20956;-70
2021/12/22 11:19:57;;;;;;;4.10;3.37;;;;;;;-8.29;66.77;100299.14;1703797;84;21053;-70
2021/12/22 11:22:36;;;;;;;7.70;3.80;;;;;;;-8.27;67.07;100307.70;1701401;84;21060;-82
2021/12/22 11:24:53;;;;;;;7.03;4.23;;;;;;;-8.24;67.35;100283.14;1694215;84;21079;-79
2021/12/22 11:27:25;;;;;;;4.00;3.40;;;;;;;-8.22;67.45;100289.09;1701595;84;21779;-76
2021/12/22 11:29:55;;;;;;;3.30;3.00;;;;;;;-8.21;67.55;100286.84;1695830;84;21053;-74
2021/12/22 11:32:28;;;;;;;3.67;3.37;;;;;;;-8.22;67.83;100288.62;1704169;84;21723;-74
2021/12/22 11:35:00;;;;;;;6.70;4.33;;;;;;;-8.21;67.91;100290.75;1705571;84;21116;-79
2021/12/22 11:37:27;;;;;;;;;;;;;;;-8.22;67.49;100287.78;1708017;82;21039;-79
2021/12/22 11:39:55;;;;;;;3.63;3.30;;;;;;;-8.27;67.60;100292.05;1716579;82;21004;-74
2021/12/22 11:42:25;;;;;;;4.27;3.33;;;;;;;-8.30;67.74;100281.88;1703978;84;21033;-72
2021/12/22 11:44:53;;;;;;;5.10;3.57;;;;;;;-8.29;68.04;100289.20;1705186;82;21159;-77
2021/12/22 11:47:19;;;;;;;6.63;4.17;;;;;;;-8.23;68.00;100291.33;1705065;82;21051;-74
2021/12/22 11:49:58;;;;;;;5.40;4.20;;;;;;;-8.23;67.90;100300.46;1721983;82;21706;-69